Time;durP1;ratioP1;P1;durP2;ratioP2;P2;SDS_P1;SDS_P2;PMS_P1;PMS_P2;Temp;Humidity;BMP_temperature;BMP_pressure;BME280_temperature;BME280_humidity;BME280_pressure;Samples;Min_cycle;Max_cycle;Signal;HPM_P1;HPM_P2
2022/06/03 00:02:12;;;;;;;9.63;8.38;;;18.20;67.40;;;14.56;85.19;95563.13;5066903;28;20043;-49
2022/06/03 00:05:36;;;;;;;10.60;8.90;;;18.10;67.40;;;14.49;85.51;95570.72;5075993;28;20506;-48
2022/06/03 00:08:39;;;;;;;13.40;8.85;;;18.10;67.50;;;14.43;85.36;95576.44;5075647;28;20028;-49
2022/06/03 00:11:45;;;;;;;16.65;8.98;;;18.00;67.40;;;14.38;85.42;95589.91;5075582;28;20409;-50
2022/06/03 00:15:18;;;;;;;10.23;8.32;;;17.90;67.30;;;14.29;86.26;95582.53;5074635;28;20059;-51
2022/06/03 00:18:35;;;;;;;13.73;9.67;;;17.80;67.60;;;14.17;86.73;95582.13;5075410;28;20107;-50
2022/06/03 00:21:50;;;;;;;14.25;10.38;;;17.80;67.80;;;14.13;86.70;95589.13;5019187;28;20055;-54
2022/06/03 00:24:36;;;;;;;13.57;10.65;;;17.70;67.90;;;14.07;86.86;95587.59;4992389;28;20037;-50
2022/06/03 00:27:57;;;;;;;11.88;10.32;;;17.70;68.00;;;14.05;86.88;95600.50;5083437;28;20559;-50
2022/06/03 00:31:21;;;;;;;11.30;9.68;;;17.60;68.40;;;14.01;86.88;95608.31;5095485;28;20035;-50
2022/06/03 00:34:20;;;;;;;11.80;10.25;;;17.60;68.40;;;13.90;87.12;95606.81;5095380;28;20027;-48
2022/06/03 00:37:13;;;;;;;14.32;12.10;;;17.50;68.30;;;13.83;87.67;95609.84;5094187;28;20028;-48
2022/06/03 00:39:54;;;;;;;14.45;12.15;;;17.40;68.70;;;13.83;87.90;95609.03;5095329;28;20032;-49
2022/06/03 00:42:52;;;;;;;14.93;12.15;;;17.40;69.00;;;13.84;87.95;95592.69;5094307;28;20587;-48
2022/06/03 00:45:39;;;;;;;16.88;12.52;;;17.40;69.00;;;13.83;88.38;95596.44;5095349;28;20024;-48
2022/06/03 00:48:25;;;;;;;15.73;11.85;;;17.40;69.50;;;13.88;88.10;95587.53;5095076;28;20130;-48
2022/06/03 00:51:46;;;;;;;15.18;12.60;;;17.40;70.00;;;13.88;87.54;95591.03;5093939;28;20031;-48
2022/06/03 00:54:50;;;;;;;14.68;13.07;;;17.40;70.30;;;13.84;87.85;95589.22;5094951;28;20082;-50
2022/06/03 00:57:29;;;;;;;15.30;12.82;;;17.40;70.10;;;13.79;87.90;95605.34;5083131;28;20086;-49
2022/06/03 01:00:07;;;;;;;17.45;13.50;;;17.40;69.90;;;13.75;88.34;95601.63;5088875;28;20031;-48
2022/06/03 01:03:03;;;;;;;17.92;14.00;;;17.30;70.00;;;13.77;88.50;95592.22;5074598;28;20033;-48
2022/06/03 01:06:16;;;;;;;15.20;12.30;;;17.30;70.30;;;13.79;87.76;95589.28;5073767;28;20035;-48
2022/06/03 01:09:35;;;;;;;15.68;11.68;;;17.30;70.40;;;13.72;87.53;95578.09;5058168;28;20517;-48
2022/06/03 01:12:24;;;;;;;16.65;12.57;;;17.30;70.20;;;13.67;87.51;95578.16;5042972;28;20515;-49
2022/06/03 01:15:55;;;;;;;14.20;12.70;;;17.30;70.10;;;13.61;87.45;95586.22;5057761;28;20491;-50
2022/06/03 01:18:55;;;;;;;16.60;12.98;;;17.20;70.00;;;13.53;88.08;95586.84;5074350;28;20029;-50
2022/06/03 01:21:55;;;;;;;17.02;12.32;;;17.20;70.20;;;13.47;88.06;95585.28;5072972;28;20051;-50
2022/06/03 01:25:01;;;;;;;17.80;13.38;;;17.10;70.20;;;13.43;88.30;95577.03;5048527;28;20494;-48
2022/06/03 01:28:24;;;;;;;17.08;13.55;;;17.10;70.20;;;13.35;88.69;95563.47;5092302;28;20093;-49
2022/06/03 01:31:23;;;;;;;13.43;12.02;;;17.10;70.30;;;13.34;88.66;95572.59;5094342;28;20028;-49
2022/06/03 01:34:25;;;;;;;16.83;13.52;;;17.00;70.40;;;13.32;89.22;95574.75;5090324;28;20094;-52
2022/06/03 01:37:13;;;;;;;16.55;12.98;;;16.90;70.60;;;13.33;89.96;95579.03;5089632;28;20035;-49
2022/06/03 01:39:54;;;;;;;16.42;12.82;;;16.90;70.80;;;13.39;89.72;95593.94;5073993;28;20032;-48
2022/06/03 01:42:20;;;;;;;14.70;12.38;;;16.90;70.60;;;13.42;89.61;95590.72;5094445;28;20385;-50
2022/06/03 01:45:13;;;;;;;14.13;12.10;;;16.90;70.60;;;13.41;89.28;95591.78;5094013;28;20028;-49
2022/06/03 01:48:17;;;;;;;20.60;14.50;;;16.90;70.60;;;13.38;89.13;95585.13;5093944;28;20032;-48
2022/06/03 01:51:19;;;;;;;18.25;15.20;;;17.00;70.90;;;13.37;89.33;95585.41;5092917;28;20047;-48
2022/06/03 01:54:33;;;;;;;18.67;14.70;;;17.00;70.90;;;13.36;90.05;95575.78;5093952;28;20035;-50
2022/06/03 01:57:36;;;;;;;15.25;13.13;;;17.00;71.00;;;13.38;90.00;95577.09;5093885;28;20031;-52
2022/06/03 02:00:42;;;;;;;17.45;13.60;;;17.00;71.20;;;13.40;89.66;95588.31;5086472;28;20037;-49
2022/06/03 02:03:55;;;;;;;14.18;12.73;;;17.00;71.10;;;13.41;89.85;95586.41;5060659;28;20075;-53
2022/06/03 02:07:00;;;;;;;14.95;13.32;;;17.00;71.30;;;13.43;89.86;95586.94;5093564;28;20461;-54
2022/06/03 02:10:10;;;;;;;17.73;14.90;;;17.00;71.40;;;13.40;89.88;95566.09;5092220;28;20065;-49
2022/06/03 02:12:44;;;;;;;17.25;14.02;;;17.00;71.40;;;13.40;89.29;95564.22;5093495;28;20035;-50
2022/06/03 02:15:47;;;;;;;15.88;13.35;;;16.90;71.10;;;13.36;88.94;95573.91;5092361;28;20028;-51
2022/06/03 02:18:42;;;;;;;14.57;12.43;;;17.00;71.30;;;13.32;88.86;95574.75;5093295;28;20557;-52
2022/06/03 02:22:04;;;;;;;18.33;13.98;;;16.90;71.10;;;13.29;88.57;95578.00;5092152;28;20032;-49
2022/06/03 02:25:08;;;;;;;16.50;13.63;;;16.90;71.10;;;13.21;88.25;95584.72;5093232;28;20098;-50
2022/06/03 02:28:12;;;;;;;18.30;14.02;;;16.90;70.90;;;13.12;88.02;95595.19;5086079;28;20394;-50
2022/06/03 02:31:25;;;;;;;18.45;15.27;;;16.80;70.90;;;13.08;88.46;95599.53;5093058;28;20402;-51
2022/06/03 02:34:24;;;;;;;16.57;13.43;;;16.80;71.00;;;13.04;88.53;95603.84;5093238;28;20036;-48
2022/06/03 02:37:56;;;;;;;13.57;12.02;;;16.80;70.90;;;13.03;89.07;95607.56;5092990;28;20048;-50
2022/06/03 02:41:02;;;;;;;15.48;12.50;;;16.80;71.10;;;13.04;89.30;95617.22;5072813;28;20051;-51
2022/06/03 02:44:25;;;;;;;15.80;12.68;;;16.80;71.10;;;13.03;89.25;95612.13;5092988;28;20039;-50
2022/06/03 02:47:50;;;;;;;16.63;13.27;;;16.80;71.20;;;13.06;89.86;95622.25;5076049;28;20044;-54
2022/06/03 02:51:15;;;;;;;20.00;13.43;;;16.80;71.20;;;13.10;90.30;95612.59;5092908;28;20020;-49
2022/06/03 02:53:43;;;;;;;15.52;12.80;;;16.80;71.20;;;13.13;90.49;95607.50;5092746;28;20039;-51
2022/06/03 02:56:20;;;;;;;18.45;14.55;;;16.80;71.20;;;13.15;90.64;95600.00;5091478;28;20071;-51
2022/06/03 02:59:29;;;;;;;19.40;14.63;;;16.80;71.50;;;13.18;90.42;95590.63;5093179;22;20049;-57
2022/06/03 03:02:13;;;;;;;17.17;13.70;;;16.90;71.80;;;13.21;90.54;95590.06;5060133;28;20124;-53
2022/06/03 03:05:15;;;;;;;17.20;13.13;;;16.90;71.60;;;13.23;90.26;95585.22;5072977;28;20028;-56
2022/06/03 03:08:32;;;;;;;17.67;12.63;;;16.90;71.80;;;13.23;89.90;95587.91;5074262;28;20371;-55
2022/06/03 03:11:54;;;;;;;17.85;13.43;;;16.90;71.70;;;13.20;90.14;95578.56;5093416;28;20027;-53
2022/06/03 03:14:47;;;;;;;23.48;16.38;;;16.90;71.70;;;13.20;90.99;95586.59;5074836;28;20100;-56
2022/06/03 03:17:25;;;;;;;24.63;16.65;;;16.90;71.90;;;13.25;91.27;95574.28;5092967;28;20394;-52
2022/06/03 03:20:43;;;;;;;19.42;14.82;;;16.90;72.00;;;13.32;91.05;95566.75;5093192;28;20038;-54
2022/06/03 03:23:47;;;;;;;17.95;13.27;;;17.00;72.30;;;13.34;90.66;95567.22;5093235;28;20158;-56
2022/06/03 03:27:09;;;;;;;21.77;15.80;;;17.00;72.10;;;13.35;90.72;95558.13;5092657;28;20035;-55
2022/06/03 03:30:15;;;;;;;21.50;13.25;;;17.00;72.30;;;13.37;90.30;95561.31;5091973;28;20498;-52
2022/06/03 03:33:38;;;;;;;20.40;13.65;;;17.00;72.20;;;13.34;89.89;95564.56;5091348;28;20383;-56
2022/06/03 03:36:56;;;;;;;19.75;14.02;;;16.90;72.00;;;13.33;90.20;95560.28;5092678;28;20099;-57
2022/06/03 03:40:11;;;;;;;18.73;14.02;;;17.00;72.10;;;13.27;90.08;95561.41;5092540;28;20035;-56
2022/06/03 03:43:42;;;;;;;19.00;13.90;;;16.90;72.00;;;13.25;90.25;95556.34;5092733;28;20028;-52
2022/06/03 03:46:44;;;;;;;16.92;14.13;;;16.90;72.10;;;13.24;90.48;95565.41;5092466;28;20381;-57
2022/06/03 03:50:14;;;;;;;19.55;14.02;;;16.90;72.10;;;13.24;90.79;95562.75;5074161;28;20081;-55
2022/06/03 03:53:33;;;;;;;20.90;14.32;;;16.90;72.30;;;13.29;91.00;95565.41;5073588;28;20075;-58
2022/06/03 03:56:17;;;;;;;18.15;13.32;;;17.00;72.40;;;13.31;90.83;95565.13;5091969;28;20098;-53
2022/06/03 03:59:31;;;;;;;15.95;12.88;;;17.00;72.10;;;13.36;90.54;95562.41;5091893;28;20044;-52
2022/06/03 04:02:42;;;;;;;18.95;12.30;;;17.10;72.30;;;13.39;90.48;95576.00;5060247;28;20056;-54
2022/06/03 04:05:59;;;;;;;18.75;13.70;;;17.20;72.30;;;13.44;90.62;95572.47;5034783;28;20410;-54
2022/06/03 04:09:15;;;;;;;16.02;12.85;;;17.20;72.20;;;13.50;90.45;95574.03;5072079;28;20078;-52
2022/06/03 04:12:21;;;;;;;15.77;12.77;;;17.30;72.10;;;13.55;90.28;95576.66;5057692;28;20387;-54
2022/06/03 04:15:27;;;;;;;16.15;12.43;;;17.40;72.00;;;13.61;90.39;95586.22;5071713;28;20028;-54
2022/06/03 04:18:21;;;;;;;13.50;11.80;;;17.50;71.90;;;13.74;90.10;95583.97;5071682;28;20447;-55
2022/06/03 04:21:21;;;;;;;16.42;13.00;;;17.50;71.80;;;13.75;89.78;95574.84;5037561;28;20116;-55
2022/06/03 04:24:29;;;;;;;15.55;11.93;;;17.60;71.80;;;13.78;89.67;95569.72;5071634;28;20446;-55
2022/06/03 04:27:38;;;;;;;14.48;12.27;;;17.60;71.60;;;13.84;89.70;95573.16;5071789;28;20020;-52
2022/06/03 04:30:07;;;;;;;15.40;12.57;;;17.70;71.60;;;13.88;89.82;95580.34;5071613;28;20081;-57
2022/06/03 04:33:19;;;;;;;17.17;11.90;;;17.70;71.50;;;13.96;89.66;95583.47;5071616;28;20387;-55
2022/06/03 04:36:48;;;;;;;17.90;12.20;;;17.80;71.70;;;13.99;89.66;95577.53;5071457;28;20082;-57
2022/06/03 04:39:16;;;;;;;14.55;11.18;;;17.90;71.50;;;14.04;89.57;95580.97;5071383;28;20112;-55
2022/06/03 04:42:47;;;;;;;13.55;11.50;;;17.90;71.20;;;14.09;89.37;95566.69;5073181;28;20399;-57
2022/06/03 04:45:54;;;;;;;18.08;12.80;;;17.90;71.40;;;14.11;89.39;95562.66;5075031;28;20029;-57
2022/06/03 04:49:00;;;;;;;15.63;12.80;;;17.90;71.30;;;14.11;89.61;95562.66;5074912;28;20094;-57
2022/06/03 04:52:15;;;;;;;13.90;12.30;;;17.90;71.40;;;14.17;89.28;95565.28;5057062;28;20032;-55
2022/06/03 04:55:40;;;;;;;16.90;13.07;;;17.90;71.50;;;14.21;89.21;95572.44;5056892;28;20028;-57
2022/06/03 04:58:42;;;;;;;16.70;13.45;;;18.00;71.40;;;14.23;88.98;95569.47;5074226;28;20048;-57
2022/06/03 05:01:51;;;;;;;14.90;12.40;;;18.00;71.20;;;14.26;89.32;95577.75;5074595;28;20043;-56
2022/06/03 05:05:15;;;;;;;16.67;13.20;;;18.10;71.40;;;14.52;89.37;95580.09;5074543;28;20044;-53
2022/06/03 05:08:08;;;;;;;14.93;12.50;;;18.20;71.40;;;14.93;89.30;95574.16;5042880;28;20483;-57
2022/06/03 05:11:50;;;;;;;14.27;10.77;;;18.40;71.20;;;15.38;87.11;95571.78;5074644;28;20432;-53
2022/06/03 05:15:15;;;;;;;10.05;8.93;;;18.80;71.20;;;15.70;86.75;95577.16;4977036;28;20545;-56
2022/06/03 05:18:37;;;;;;;13.68;9.60;;;19.10;70.90;;;16.29;85.81;95563.09;4973573;28;20031;-57
2022/06/03 05:22:02;;;;;;;8.77;7.78;;;19.60;70.50;;;16.77;82.18;95565.34;4973510;28;20139;-53
2022/06/03 05:25:13;;;;;;;7.63;6.82;;;20.00;69.90;;;17.00;80.97;95566.94;4980592;28;20037;-54
2022/06/03 05:28:16;;;;;;;8.23;7.35;;;20.40;69.40;;;17.06;80.39;95565.72;4983812;28;20035;-57
2022/06/03 05:31:39;;;;;;;8.25;7.25;;;20.70;68.80;;;17.28;79.88;95564.91;4985732;28;20026;-58
2022/06/03 05:34:45;;;;;;;8.88;7.10;;;21.00;68.20;;;17.39;79.06;95560.03;4972665;28;20065;-58
2022/06/03 05:38:29;;;;;;;7.60;6.90;;;21.30;67.50;;;17.66;78.40;95561.00;4978986;28;20062;-57
2022/06/03 05:44:51;;;;;;;6.63;6.03;;;21.90;66.10;;;18.13;75.60;95545.19;4934295;28;20138;-56
2022/06/03 05:47:34;;;;;;;9.60;7.57;;;22.20;65.30;;;18.10;74.71;95541.22;5052832;28;20028;-57
2022/06/03 05:50:20;;;;;;;8.32;7.53;;;22.30;64.30;;;18.17;74.48;95536.16;5057588;28;20384;-57
2022/06/03 05:53:20;;;;;;;8.10;6.38;;;22.50;63.70;;;18.38;74.26;95549.06;5053377;28;20451;-58
2022/06/03 05:56:17;;;;;;;6.90;6.20;;;22.70;63.00;;;18.50;74.01;95549.22;5069029;28;20029;-56
2022/06/03 05:58:52;;;;;;;6.13;5.53;;;22.90;62.40;;;18.52;72.78;95554.28;5069246;28;20076;-58
2022/06/03 06:01:55;;;;;;;7.40;5.90;;;23.00;61.70;;;18.60;72.95;95554.31;5057942;28;20032;-54
2022/06/03 06:04:52;;;;;;;6.55;5.60;;;23.10;61.30;;;18.82;72.57;95549.91;5067418;28;20111;-53
2022/06/03 06:07:54;;;;;;;6.88;5.40;;;23.30;60.90;;;18.94;71.80;95550.06;5070014;28;20025;-53
2022/06/03 06:11:06;;;;;;;7.97;6.32;;;23.50;60.40;;;18.82;71.22;95556.09;5053654;28;20029;-58
2022/06/03 06:14:05;;;;;;;6.82;6.13;;;23.60;59.60;;;18.86;71.04;95550.84;5063968;28;20028;-53
2022/06/03 06:16:45;;;;;;;6.35;5.78;;;23.70;59.10;;;18.86;70.89;95548.16;5043276;28;20372;-58
2022/06/03 06:19:44;;;;;;;6.97;6.25;;;23.70;58.60;;;18.97;70.53;95538.63;5055361;28;20047;-58
2022/06/03 06:22:46;;;;;;;10.32;6.38;;;23.70;58.40;;;19.22;69.85;95538.94;5056525;28;20074;-55
2022/06/03 06:25:39;;;;;;;7.05;6.35;;;23.80;58.20;;;19.44;68.77;95549.53;5073487;28;20034;-58
2022/06/03 06:28:58;;;;;;;10.20;6.25;;;24.00;57.70;;;19.86;67.67;95552.44;5056044;28;20384;-58
2022/06/03 06:32:10;;;;;;;7.90;7.10;;;24.20;57.60;;;20.07;66.35;95547.88;5048939;28;20436;-55
2022/06/03 06:35:23;;;;;;;10.15;6.60;;;24.50;57.10;;;20.28;65.37;95539.81;5073094;28;20446;-55
2022/06/03 06:38:24;;;;;;;7.43;6.72;;;24.70;56.60;;;20.13;64.63;95537.69;5072801;28;20102;-53
2022/06/03 06:41:46;;;;;;;7.38;6.45;;;24.90;55.80;;;20.37;64.75;95539.78;5057840;28;20063;-56
2022/06/03 06:44:53;;;;;;;9.02;6.68;;;25.20;55.10;;;20.77;63.00;95544.78;5072741;28;20024;-55
2022/06/03 06:47:42;;;;;;;7.43;6.35;;;25.50;54.40;;;21.10;62.37;95533.19;5055632;28;20051;-52
2022/06/03 06:50:32;;;;;;;7.03;6.32;;;25.90;54.00;;;21.30;61.76;95536.97;5055860;28;20085;-55
2022/06/03 06:53:51;;;;;;;8.18;6.93;;;26.20;53.30;;;21.58;61.08;95534.50;5075916;28;20531;-55
2022/06/03 06:56:38;;;;;;;6.55;5.95;;;26.40;53.00;;;21.83;60.27;95541.53;5034991;28;20055;-53
2022/06/03 06:59:27;;;;;;;7.95;6.18;;;26.70;52.60;;;21.88;59.77;95537.81;5058848;28;20040;-46
2022/06/03 07:02:20;;;;;;;8.43;6.32;;;26.90;51.90;;;21.91;59.17;95527.09;5043961;28;20043;-47
2022/06/03 07:05:04;;;;;;;8.77;6.57;;;27.00;51.10;;;21.92;59.14;95523.22;5049479;28;20098;-47
2022/06/03 07:07:55;;;;;;;7.40;6.70;;;27.20;50.60;;;21.92;59.07;95525.94;5072302;28;20035;-52
2022/06/03 07:11:09;;;;;;;7.20;6.50;;;27.30;50.30;;;22.11;58.57;95528.09;5054634;28;20033;-47
2022/06/03 07:13:39;;;;;;;7.15;6.03;;;27.40;49.90;;;22.42;58.52;95529.47;5072513;28;20259;-47
2022/06/03 07:20:06;;;;;;;6.50;5.90;;;27.80;49.30;;;23.05;56.98;95524.34;5058404;28;20032;-47
2022/06/03 07:22:56;;;;;;;6.22;5.55;;;27.90;49.30;;;23.40;55.56;95529.16;5070831;28;20074;-50
2022/06/03 07:25:47;;;;;;;6.90;5.43;;;28.20;49.00;;;23.72;55.72;95527.31;5040279;28;20119;-48
2022/06/03 07:28:30;;;;;;;5.82;5.22;;;28.60;48.70;;;24.00;54.02;95523.69;5072104;28;20045;-49
2022/06/03 07:31:01;;;;;;;;;;;28.90;48.20;;;24.35;53.37;95528.41;5071357;28;20028;-49
2022/06/03 07:34:09;;;;;;;5.50;5.00;;;29.30;48.60;;;24.72;52.22;95519.91;5072062;28;19919;-49
2022/06/03 07:36:46;;;;;;;6.57;5.97;;;29.80;47.20;;;25.02;51.63;95515.47;5039602;28;20045;-49
2022/06/03 07:39:48;;;;;;;7.25;6.10;;;30.30;46.50;;;25.00;50.41;95511.53;5059752;28;20025;-46
2022/06/03 07:42:26;;;;;;;6.60;5.78;;;30.60;45.20;;;25.21;50.32;95508.47;5072165;28;20372;-46
2022/06/03 07:45:38;;;;;;;6.38;5.88;;;30.90;44.40;;;25.47;49.61;95505.06;5054357;28;20436;-49
2022/06/03 07:48:22;;;;;;;9.07;6.00;;;31.10;43.80;;;25.60;49.66;95501.81;5071854;28;20499;-50
2022/06/03 07:51:15;;;;;;;10.88;5.38;;;31.30;43.30;;;25.86;48.95;95494.06;5054354;28;20487;-49
2022/06/03 07:53:54;;;;;;;;;;;31.60;42.90;;;26.05;49.38;95492.03;5055311;28;20028;-46
2022/06/03 07:56:29;;;;;;;7.30;6.15;;;31.70;43.30;;;26.03;48.71;95493.56;5054883;28;19927;-46
2022/06/03 07:59:20;;;;;;;6.57;5.78;;;32.00;42.00;;;26.25;48.25;95500.91;5053994;28;20045;-51
2022/06/03 08:02:13;;;;;;;7.03;6.43;;;32.30;41.50;;;26.29;47.89;95490.84;5043103;28;20017;-47
2022/06/03 08:04:43;;;;;;;6.88;6.22;;;32.60;40.60;;;26.52;47.77;95484.56;5055436;28;20066;-49
2022/06/03 08:13:18;;;;;;;7.05;6.32;;;33.60;39.00;;;27.14;46.21;95474.03;5060383;28;20085;-46
2022/06/03 08:16:05;;;;;;;6.55;5.93;;;33.90;38.50;;;27.30;45.79;95464.84;5055802;28;20115;-46
2022/06/03 08:18:43;;;;;;;6.57;5.82;;;33.90;38.00;;;27.24;46.52;95469.06;5075413;28;20067;-47
2022/06/03 08:21:49;;;;;;;9.82;6.35;;;33.60;38.40;;;27.16;46.14;95458.03;5057746;28;20437;-46
2022/06/03 08:24:23;;;;;;;7.10;5.70;;;33.40;38.50;;;26.99;46.50;95451.19;5058616;28;20036;-48
2022/06/03 08:26:59;;;;;;;6.47;5.88;;;33.50;37.90;;;26.86;46.58;95444.41;5057845;28;20037;-48
2022/06/03 08:29:45;;;;;;;6.60;5.90;;;33.50;37.70;;;26.69;47.09;95440.28;5042097;28;20451;-47
2022/06/03 08:32:22;;;;;;;7.30;6.13;;;33.30;37.70;;;26.75;46.84;95427.88;5075224;28;20024;-51
2022/06/03 08:34:51;;;;;;;7.18;6.13;;;33.30;37.50;;;26.97;46.66;95423.44;5057882;28;20115;-48
2022/06/03 08:38:08;;;;;;;7.47;6.65;;;33.50;37.50;;;27.17;46.33;95420.53;5057377;28;20552;-47
2022/06/03 08:41:05;;;;;;;6.05;5.47;;;33.70;37.30;;;27.22;47.06;95418.25;5037973;28;20114;-47
2022/06/03 08:43:51;;;;;;;6.25;5.30;;;33.90;37.20;;;27.62;45.52;95410.41;5071753;28;20032;-47
2022/06/03 08:46:24;;;;;;;5.18;4.68;;;34.10;36.80;;;27.88;44.45;95406.72;5057671;28;20032;-49
2022/06/03 08:49:02;;;;;;;6.93;5.25;;;34.20;36.30;;;27.00;45.87;95397.31;5057118;28;20024;-47
2022/06/03 08:51:52;;;;;;;6.22;5.50;;;34.30;35.80;;;27.21;45.84;95391.31;5074916;28;20028;-49
2022/06/03 08:54:51;;;;;;;8.05;5.95;;;34.40;35.90;;;27.77;44.89;95390.25;5057380;28;20032;-48
2022/06/03 08:57:43;;;;;;;5.30;4.80;;;34.40;36.10;;;28.09;44.26;95376.75;5057465;28;20115;-46
2022/06/03 09:00:24;;;;;;;5.25;4.75;;;34.60;35.70;;;28.22;44.03;95369.00;5087265;23;20446;-55
2022/06/03 09:03:19;;;;;;;5.65;4.97;;;34.70;35.50;;;28.22;44.11;95363.53;5052725;28;20028;-53
2022/06/03 09:06:11;;;;;;;7.18;5.47;;;34.70;35.20;;;27.94;44.48;95369.63;5054688;28;20032;-55
2022/06/03 09:08:57;;;;;;;6.47;5.13;;;34.90;35.00;;;27.97;43.25;95368.09;5050777;28;20023;-56
2022/06/03 09:12:02;;;;;;;9.43;5.28;;;34.90;34.50;;;28.10;43.32;95375.59;5077447;28;20036;-56
2022/06/03 09:14:33;;;;;;;6.10;5.22;;;34.90;34.30;;;28.26;43.35;95369.78;5057064;28;20177;-56
2022/06/03 09:17:42;;;;;;;7.38;5.45;;;35.00;34.30;;;28.45;42.98;95370.69;5059683;28;20039;-55
2022/06/03 09:20:26;;;;;;;6.90;5.38;;;35.00;34.10;;;28.51;43.67;95369.16;5079307;28;20122;-57
2022/06/03 09:23:05;;;;;;;7.20;5.38;;;35.20;34.20;;;28.85;43.68;95371.63;5077402;28;20497;-56
2022/06/03 09:25:43;;;;;;;6.05;4.85;;;35.30;34.30;;;29.12;42.22;95370.16;5077029;28;20031;-56
2022/06/03 09:28:17;;;;;;;5.05;4.40;;;35.40;34.00;;;29.47;40.51;95369.38;5076160;28;20032;-56
2022/06/03 09:30:45;;;;;;;5.35;4.53;;;35.50;33.80;;;29.31;40.06;95368.22;5094419;28;20065;-57
2022/06/03 09:33:24;;;;;;;8.10;5.50;;;35.50;33.40;;;29.12;41.83;95367.41;5076509;28;20107;-57
2022/06/03 09:35:54;;;;;;;6.57;4.97;;;35.80;33.10;;;29.45;42.18;95360.75;5059899;28;20046;-57
2022/06/03 09:38:42;;;;;;;6.35;4.93;;;36.10;33.00;;;30.03;41.12;95358.00;5076422;28;20525;-56
2022/06/03 09:41:09;;;;;;;5.38;4.97;;;36.30;33.20;;;29.14;39.15;95354.06;5077889;28;20032;-57
2022/06/03 09:43:47;;;;;;;6.72;4.75;;;36.50;31.70;;;29.55;40.38;95350.19;5076219;28;20028;-56
2022/06/03 09:46:20;;;;;;;5.90;4.85;;;36.50;31.80;;;30.00;39.82;95359.56;5076096;28;20028;-57
2022/06/03 09:48:49;;;;;;;5.22;4.72;;;36.50;31.70;;;30.30;38.11;95350.88;5059339;28;20081;-57
2022/06/03 09:54:19;;;;;;;6.18;4.60;;;36.70;31.20;;;30.80;38.12;95347.16;5079168;28;20039;-57
2022/06/03 09:56:56;;;;;;;5.13;4.63;;;36.90;31.20;;;30.77;37.28;95343.22;5079631;28;20475;-57
2022/06/03 09:59:24;;;;;;;6.38;4.47;;;37.00;30.70;;;31.00;38.61;95347.44;5078317;28;20047;-57
2022/06/03 10:01:56;;;;;;;9.00;5.05;;;37.10;31.00;;;30.74;37.82;95337.72;5043879;28;20024;-56
2022/06/03 10:04:31;;;;;;;7.10;4.47;;;37.20;30.60;;;30.56;38.89;95329.59;5055764;28;20033;-57
2022/06/03 10:07:00;;;;;;;5.47;4.28;;;37.20;30.60;;;30.48;38.68;95322.56;5055676;28;20044;-57
2022/06/03 10:15:42;;;;;;;6.03;4.60;;;37.30;30.10;;;30.13;38.70;95325.00;5058559;28;20106;-57
2022/06/03 10:18:24;;;;;;;4.20;3.80;;;37.30;30.00;;;30.34;38.18;95315.94;5056524;28;20487;-57
2022/06/03 10:20:55;;;;;;;7.47;4.57;;;37.30;30.00;;;30.30;38.41;95319.88;5038574;28;20544;-57
2022/06/03 10:23:26;;;;;;;8.75;4.60;;;37.30;30.00;;;30.03;40.56;95327.78;5073178;28;20028;-57
2022/06/03 10:25:52;;;;;;;8.38;4.88;;;37.30;30.10;;;30.39;38.43;95329.25;5036111;28;20506;-57
2022/06/03 10:28:21;;;;;;;4.78;4.30;;;37.30;30.20;;;30.26;38.92;95322.63;5046802;28;20051;-57
2022/06/03 10:31:01;;;;;;;4.38;4.07;;;37.40;30.00;;;30.43;38.42;95332.00;5055051;28;20432;-57
2022/06/03 10:33:26;;;;;;;6.72;4.50;;;37.40;29.90;;;30.79;37.45;95338.13;5055206;28;20028;-57
2022/06/03 10:35:58;;;;;;;5.82;4.60;;;37.60;29.90;;;30.91;38.43;95347.88;5055398;28;20025;-57
2022/06/03 10:38:27;;;;;;;;;;;37.80;29.80;;;31.06;37.25;95346.59;5055546;28;20120;-56
2022/06/03 10:40:56;;;;;;;4.38;3.97;;;38.00;29.90;;;30.90;37.11;95349.06;5072657;28;19930;-57
2022/06/03 10:43:30;;;;;;;5.03;4.00;;;38.20;29.40;;;30.80;36.48;95356.16;5054908;28;20058;-57
2022/06/03 10:46:14;;;;;;;4.90;4.07;;;38.10;29.20;;;30.83;36.42;95352.63;5072699;28;20078;-57
2022/06/03 10:48:41;;;;;;;4.65;4.25;;;38.00;29.00;;;30.45;37.57;95356.31;5055074;28;20032;-57
2022/06/03 11:02:39;;;;;;;8.07;4.82;;;37.20;30.50;;;31.01;40.00;95391.03;5056963;28;20039;-56
2022/06/03 11:05:37;;;;;;;5.60;5.10;;;37.00;31.10;;;30.53;41.19;95393.59;5072448;28;20056;-58
2022/06/03 11:08:10;;;;;;;5.28;4.43;;;36.70;31.60;;;30.23;41.45;95408.56;5055384;28;20049;-57
2022/06/03 11:10:50;;;;;;;6.07;4.72;;;36.40;32.00;;;30.10;41.44;95423.88;5054690;28;20024;-57
2022/06/03 11:13:40;;;;;;;7.95;4.65;;;36.10;32.50;;;30.21;41.43;95424.69;5055236;28;20060;-57
2022/06/03 11:16:26;;;;;;;6.22;4.90;;;36.00;32.80;;;30.14;41.93;95425.44;5072288;28;20029;-57
2022/06/03 11:18:53;;;;;;;6.05;5.43;;;36.20;33.10;;;30.30;40.96;95418.75;5070898;28;20411;-58
2022/06/03 11:21:39;;;;;;;6.97;4.60;;;36.40;32.60;;;30.56;40.32;95431.25;5052798;28;20020;-57
2022/06/03 11:24:05;;;;;;;6.95;5.10;;;36.80;32.50;;;30.63;39.58;95439.47;5045847;28;20170;-58
2022/06/03 11:26:46;;;;;;;4.80;4.40;;;37.10;31.80;;;30.91;39.47;95429.59;5054350;28;20040;-55
2022/06/03 11:29:24;;;;;;;5.72;4.57;;;37.50;31.50;;;31.00;38.79;95416.97;5037626;28;20368;-54
2022/06/03 11:31:55;;;;;;;5.20;4.75;;;37.80;30.90;;;31.14;39.50;95407.84;5055386;28;20044;-57
2022/06/03 11:34:37;;;;;;;7.88;4.82;;;38.00;31.00;;;31.54;38.09;95417.44;5054469;28;20036;-58
2022/06/03 11:37:20;;;;;;;6.73;4.77;;;38.20;30.60;;;31.39;38.98;95426.19;5054150;28;20419;-58
2022/06/03 11:40:07;;;;;;;7.18;5.05;;;38.40;30.50;;;31.37;37.28;95425.81;5054877;28;20103;-58
2022/06/03 11:42:51;;;;;;;6.20;4.63;;;38.40;30.00;;;31.21;37.19;95418.78;5055584;28;20044;-58
2022/06/03 11:45:31;;;;;;;4.45;4.10;;;38.30;29.60;;;31.20;36.60;95421.97;5072029;28;20265;-58
2022/06/03 11:48:22;;;;;;;8.00;4.22;;;38.30;29.30;;;31.49;36.07;95433.59;5055315;28;20044;-58
2022/06/03 11:50:48;;;;;;;5.60;4.40;;;38.40;29.20;;;31.76;35.67;95437.31;5041841;28;20028;-57
2022/06/03 11:53:28;;;;;;;5.63;4.50;;;38.50;29.20;;;31.81;35.61;95438.88;5058017;28;20052;-58
2022/06/03 11:56:01;;;;;;;4.82;4.00;;;38.50;29.00;;;31.76;35.21;95431.03;5058823;28;20503;-58
2022/06/03 11:58:47;;;;;;;7.70;3.85;;;38.20;28.90;;;31.62;35.93;95431.94;5058957;28;20037;-58
2022/06/03 12:01:53;;;;;;;6.57;3.67;;;37.90;29.10;;;31.28;36.82;95434.50;5042168;28;20048;-58
2022/06/03 12:04:31;;;;;;;4.28;3.90;;;37.50;29.50;;;30.99;37.36;95428.34;5044211;28;20074;-56
2022/06/03 12:07:21;;;;;;;5.55;3.80;;;37.10;29.80;;;30.61;37.67;95434.38;5076054;28;20032;-58
2022/06/03 12:10:11;;;;;;;4.03;3.72;;;36.70;30.00;;;30.23;37.55;95438.00;5057768;28;20127;-57
2022/06/03 12:15:32;;;;;;;4.57;3.65;;;35.80;30.40;;;29.90;38.63;95435.28;5059892;28;20390;-57
2022/06/03 12:18:42;;;;;;;6.93;4.38;;;35.50;31.00;;;29.70;39.54;95434.09;5095687;28;20367;-56
2022/06/03 12:21:30;;;;;;;8.80;4.80;;;35.20;31.40;;;29.46;40.58;95432.88;5081663;28;20539;-56
2022/06/03 12:24:20;;;;;;;12.90;4.22;;;35.10;32.00;;;29.24;41.67;95438.34;5095583;28;20036;-57
2022/06/03 12:26:50;;;;;;;5.03;3.85;;;34.90;32.40;;;29.10;42.89;95443.00;5081193;28;20142;-57
2022/06/03 12:29:38;;;;;;;4.55;4.15;;;34.60;33.10;;;28.64;43.47;95444.34;5077409;28;20024;-56
2022/06/03 12:32:30;;;;;;;4.05;3.72;;;34.40;33.60;;;28.12;44.71;95444.44;5078076;28;20028;-57
2022/06/03 12:35:42;;;;;;;5.40;4.25;;;34.10;34.00;;;27.58;45.84;95451.44;5095836;28;20382;-54
2022/06/03 12:38:20;;;;;;;10.00;4.03;;;33.80;34.70;;;27.36;46.58;95464.13;5077118;28;20044;-56
2022/06/03 12:40:53;;;;;;;4.90;3.45;;;33.40;35.20;;;27.05;46.43;95462.59;5077262;28;20032;-57
2022/06/03 12:43:32;;;;;;;3.30;3.00;;;33.10;35.40;;;26.79;45.00;95460.69;5078211;28;20024;-52
2022/06/03 12:46:30;;;;;;;6.00;2.95;;;32.70;35.40;;;26.65;44.07;95460.53;5095344;28;20020;-54